Airfield :
LOGIN :

Register | Disclaimer

   EN    FR    IT 

 










Legend :    VFR   Marginal VFR   IFR   Intensive IFR   Very Intensive IFR
Visi :
Ceiling :
>= 8 km
>= 3000ft
5 to 8 km
1000 to 3000 ft
1500m to 5 km
500 to 1000 ft
800 to 1500m
200 to 500 ft
< 800m
< 200 ft
Symbols :   Thunderstorms  Fog  Heavy snow  Heavy precipitations  Wind > 20 kt
SIGMETs :     Misc.  Thunderstorms  Icing  Turbulence  Mountain Waves  Volcanic Ashes






- Airport Elevation : 13 ft
- IATA code : CAG


LIEE - Cagliari Elmas

CURRENT METAR :
  • 120820Z 15007KT 120V180 CAVOK 29/21 Q1016

EXPIRED METARs :
  • 120750Z 20004KT 150V250 CAVOK 27/21 Q1016
  • 120720Z VRB02KT CAVOK 27/21 Q1015
  • 120650Z 30003KT 260V330 CAVOK 26/18 Q1015
  • 120620Z 32003KT 290V350 CAVOK 24/17 Q1015
  • 120550Z 32004KT CAVOK 23/19 Q1015
  • 120520Z 30005KT CAVOK 22/17 Q1015

TAF TAF LIEE
Valid from the 12 at 06:00 until the 13 at 06:00 UTC


120500Z 1206/1306 VRB05KT CAVOK
BECMG 1208/1210 16012KT
BECMG 1218/1220 VRB05KT



MET'MAP, your aeronautical weather chart ! - Copyright ORBIFLY December 2007 - Disclaimer

ORBIFLY MET'MAP TEAM :

Programming & Development : Alexandra Zaïnal
Concept & original design : Baudouin d'Aumeries
Assistance for programming : Marc-Olivier Méhu
Technical & hardware support : Manuel Goepfert

Contact : metmap@orbifly.com




SOURCES & CREDITS :

   NOAA